sensor_id;sensor_type;location;lat;lon;timestamp;pressure;altitude;pressure_sealevel;temperature;humidity
18275;BME280;19470;49.322;7.218;2023-03-21T00:00:53;98948.56;;;11.61;91.19
18275;BME280;19470;49.322;7.218;2023-03-21T00:03:20;98951.06;;;11.68;91.67
18275;BME280;19470;49.322;7.218;2023-03-21T00:05:46;98948.31;;;11.46;93.14
18275;BME280;19470;49.322;7.218;2023-03-21T00:08:16;98946.31;;;11.36;93.47
18275;BME280;19470;49.322;7.218;2023-03-21T00:10:42;98942.41;;;10.82;97.27
18275;BME280;19470;49.322;7.218;2023-03-21T00:13:12;98938.28;;;11.82;91.17
18275;BME280;19470;49.322;7.218;2023-03-21T00:15:40;98938.03;;;11.49;92.88
18275;BME280;19470;49.322;7.218;2023-03-21T00:18:15;98927.88;;;11.13;96.61
18275;BME280;19470;49.322;7.218;2023-03-21T00:20:55;98922.84;;;11.62;92.12
18275;BME280;19470;49.322;7.218;2023-03-21T00:23:23;98923.22;;;11.70;91.68
18275;BME280;19470;49.322;7.218;2023-03-21T00:25:49;98924.44;;;11.80;91.53
18275;BME280;19470;49.322;7.218;2023-03-21T00:28:17;98930.25;;;11.76;91.89
18275;BME280;19470;49.322;7.218;2023-03-21T00:30:44;98928.00;;;12.24;89.04
18275;BME280;19470;49.322;7.218;2023-03-21T00:33:10;98924.84;;;11.88;90.24
18275;BME280;19470;49.322;7.218;2023-03-21T00:35:38;98923.16;;;11.99;90.07
18275;BME280;19470;49.322;7.218;2023-03-21T00:38:08;98911.31;;;12.07;89.25
18275;BME280;19470;49.322;7.218;2023-03-21T00:40:34;98916.97;;;11.76;90.51
18275;BME280;19470;49.322;7.218;2023-03-21T00:43:01;98921.00;;;11.45;92.87
18275;BME280;19470;49.322;7.218;2023-03-21T00:45:29;98907.50;;;11.30;94.51
18275;BME280;19470;49.322;7.218;2023-03-21T00:47:56;98899.78;;;11.62;91.66
18275;BME280;19470;49.322;7.218;2023-03-21T00:50:23;98907.50;;;11.30;94.18
18275;BME280;19470;49.322;7.218;2023-03-21T00:52:49;98908.38;;;11.36;92.16
18275;BME280;19470;49.322;7.218;2023-03-21T00:55:18;98909.44;;;11.35;93.26
18275;BME280;19470;49.322;7.218;2023-03-21T00:57:44;98905.50;;;11.54;91.91
18275;BME280;19470;49.322;7.218;2023-03-21T01:00:12;98898.47;;;11.82;90.51
18275;BME280;19470;49.322;7.218;2023-03-21T01:02:41;98898.31;;;11.71;91.70
18275;BME280;19470;49.322;7.218;2023-03-21T01:05:24;98893.66;;;11.62;92.47
18275;BME280;19470;49.322;7.218;2023-03-21T01:08:05;98898.81;;;11.68;91.22
18275;BME280;19470;49.322;7.218;2023-03-21T01:10:32;98894.47;;;11.45;93.80
18275;BME280;19470;49.322;7.218;2023-03-21T01:12:58;98895.13;;;11.36;94.22
18275;BME280;19470;49.322;7.218;2023-03-21T01:15:25;98893.31;;;11.75;91.36
18275;BME280;19470;49.322;7.218;2023-03-21T01:17:53;98889.50;;;11.83;91.52
18275;BME280;19470;49.322;7.218;2023-03-21T01:20:19;98896.84;;;11.97;91.09
18275;BME280;19470;49.322;7.218;2023-03-21T01:22:46;98886.22;;;11.81;91.22
18275;BME280;19470;49.322;7.218;2023-03-21T01:25:13;98886.91;;;11.71;91.86
18275;BME280;19470;49.322;7.218;2023-03-21T01:27:39;98875.34;;;11.60;91.86
18275;BME280;19470;49.322;7.218;2023-03-21T01:30:07;98877.59;;;11.68;93.59
18275;BME280;19470;49.322;7.218;2023-03-21T01:32:34;98869.13;;;12.32;88.75
18275;BME280;19470;49.322;7.218;2023-03-21T01:35:02;98873.97;;;12.13;87.64
18275;BME280;19470;49.322;7.218;2023-03-21T01:37:29;98873.50;;;11.99;88.00
18275;BME280;19470;49.322;7.218;2023-03-21T01:39:56;98878.00;;;11.60;92.37
18275;BME280;19470;49.322;7.218;2023-03-21T01:42:23;98877.72;;;11.78;89.98
18275;BME280;19470;49.322;7.218;2023-03-21T01:44:54;98869.38;;;11.87;90.19
18275;BME280;19470;49.322;7.218;2023-03-21T01:47:22;98869.69;;;11.73;91.58
18275;BME280;19470;49.322;7.218;2023-03-21T01:49:50;98866.53;;;11.93;91.44
18275;BME280;19470;49.322;7.218;2023-03-21T01:52:20;98865.94;;;12.08;89.25
18275;BME280;19470;49.322;7.218;2023-03-21T02:01:32;98856.97;;;11.75;92.45
18275;BME280;19470;49.322;7.218;2023-03-21T02:03:59;98857.16;;;11.86;92.65
18275;BME280;19470;49.322;7.218;2023-03-21T02:06:32;98848.97;;;12.09;91.56
18275;BME280;19470;49.322;7.218;2023-03-21T02:09:04;98854.88;;;12.16;90.58
18275;BME280;19470;49.322;7.218;2023-03-21T02:11:34;98850.00;;;12.08;91.01
18275;BME280;19470;49.322;7.218;2023-03-21T02:14:01;98842.91;;;12.14;90.67
18275;BME280;19470;49.322;7.218;2023-03-21T02:16:35;98844.19;;;11.89;90.86
18275;BME280;19470;49.322;7.218;2023-03-21T02:22:43;98820.69;;;11.98;90.95
18275;BME280;19470;49.322;7.218;2023-03-21T02:25:47;98830.44;;;11.75;92.29
18275;BME280;19470;49.322;7.218;2023-03-21T02:28:22;98818.78;;;11.55;94.29
18275;BME280;19470;49.322;7.218;2023-03-21T02:31:13;98818.81;;;11.76;92.86
18275;BME280;19470;49.322;7.218;2023-03-21T02:34:02;98821.31;;;11.66;93.10
18275;BME280;19470;49.322;7.218;2023-03-21T02:36:57;98810.69;;;11.66;92.81
18275;BME280;19470;49.322;7.218;2023-03-21T02:39:27;98813.13;;;11.68;92.99
18275;BME280;19470;49.322;7.218;2023-03-21T02:42:02;98809.06;;;11.43;94.32
18275;BME280;19470;49.322;7.218;2023-03-21T02:44:34;98807.91;;;11.95;91.67
18275;BME280;19470;49.322;7.218;2023-03-21T02:47:06;98802.41;;;12.23;89.23
18275;BME280;19470;49.322;7.218;2023-03-21T02:49:39;98806.25;;;11.50;93.17
18275;BME280;19470;49.322;7.218;2023-03-21T02:52:13;98804.84;;;11.25;94.43
18275;BME280;19470;49.322;7.218;2023-03-21T02:58:05;98800.09;;;11.27;93.20
18275;BME280;19470;49.322;7.218;2023-03-21T03:00:33;98798.47;;;11.10;95.14
18275;BME280;19470;49.322;7.218;2023-03-21T03:03:01;98794.97;;;10.87;95.90
18275;BME280;19470;49.322;7.218;2023-03-21T03:05:33;98798.31;;;10.99;95.31
18275;BME280;19470;49.322;7.218;2023-03-21T03:11:02;98807.13;;;10.55;98.76
18275;BME280;19470;49.322;7.218;2023-03-21T03:13:42;98804.16;;;10.51;98.65
18275;BME280;19470;49.322;7.218;2023-03-21T03:16:27;98807.56;;;10.23;99.26
18275;BME280;19470;49.322;7.218;2023-03-21T03:19:04;98809.31;;;10.74;96.03
18275;BME280;19470;49.322;7.218;2023-03-21T03:21:38;98803.31;;;10.79;94.43
18275;BME280;19470;49.322;7.218;2023-03-21T03:24:09;98803.53;;;10.61;94.77
18275;BME280;19470;49.322;7.218;2023-03-21T03:26:39;98808.47;;;10.40;96.28
18275;BME280;19470;49.322;7.218;2023-03-21T03:29:10;98806.72;;;10.46;97.26
18275;BME280;19470;49.322;7.218;2023-03-21T03:31:40;98804.25;;;10.28;97.96
18275;BME280;19470;49.322;7.218;2023-03-21T03:34:13;98804.44;;;9.97;99.66
18275;BME280;19470;49.322;7.218;2023-03-21T03:36:42;98810.69;;;9.80;100.00
18275;BME280;19470;49.322;7.218;2023-03-21T03:39:13;98807.41;;;10.01;100.00
18275;BME280;19470;49.322;7.218;2023-03-21T03:41:44;98805.91;;;10.05;100.00
18275;BME280;19470;49.322;7.218;2023-03-21T03:44:11;98807.72;;;10.16;98.86
18275;BME280;19470;49.322;7.218;2023-03-21T03:46:42;98806.66;;;9.77;100.00
18275;BME280;19470;49.322;7.218;2023-03-21T03:49:14;98806.03;;;9.98;100.00
18275;BME280;19470;49.322;7.218;2023-03-21T03:51:49;98808.97;;;10.14;99.19
18275;BME280;19470;49.322;7.218;2023-03-21T03:54:22;98804.34;;;10.33;97.04
18275;BME280;19470;49.322;7.218;2023-03-21T03:56:49;98809.06;;;10.31;96.32
18275;BME280;19470;49.322;7.218;2023-03-21T03:59:16;98813.66;;;10.23;97.29
18275;BME280;19470;49.322;7.218;2023-03-21T04:01:46;98824.72;;;10.20;98.27
18275;BME280;19470;49.322;7.218;2023-03-21T04:04:13;98823.19;;;9.96;98.99
18275;BME280;19470;49.322;7.218;2023-03-21T04:06:41;98827.81;;;9.89;99.08
18275;BME280;19470;49.322;7.218;2023-03-21T04:09:07;98815.69;;;10.05;98.65
18275;BME280;19470;49.322;7.218;2023-03-21T04:11:35;98814.19;;;9.97;97.94
18275;BME280;19470;49.322;7.218;2023-03-21T04:14:02;98811.78;;;10.07;97.80
18275;BME280;19470;49.322;7.218;2023-03-21T04:16:28;98812.84;;;9.83;98.55
18275;BME280;19470;49.322;7.218;2023-03-21T04:18:56;98805.59;;;9.78;98.44
18275;BME280;19470;49.322;7.218;2023-03-21T04:21:22;98806.00;;;9.58;100.00
18275;BME280;19470;49.322;7.218;2023-03-21T04:23:49;98802.06;;;9.72;99.27
18275;BME280;19470;49.322;7.218;2023-03-21T04:26:19;98796.59;;;10.03;96.89
18275;BME280;19470;49.322;7.218;2023-03-21T04:28:48;98800.16;;;10.08;97.17
18275;BME280;19470;49.322;7.218;2023-03-21T04:31:14;98794.84;;;10.08;96.08
18275;BME280;19470;49.322;7.218;2023-03-21T04:33:41;98803.06;;;9.95;95.95
18275;BME280;19470;49.322;7.218;2023-03-21T04:36:09;98801.25;;;9.84;97.25
18275;BME280;19470;49.322;7.218;2023-03-21T04:38:50;98797.22;;;9.81;97.56
18275;BME280;19470;49.322;7.218;2023-03-21T04:41:17;98799.53;;;9.78;98.01
18275;BME280;19470;49.322;7.218;2023-03-21T04:43:43;98807.69;;;9.76;97.95
18275;BME280;19470;49.322;7.218;2023-03-21T04:46:12;98798.38;;;9.73;97.13
18275;BME280;19470;49.322;7.218;2023-03-21T04:48:39;98800.06;;;10.03;95.46
18275;BME280;19470;49.322;7.218;2023-03-21T04:51:06;98791.47;;;9.72;97.14
18275;BME280;19470;49.322;7.218;2023-03-21T04:53:32;98795.72;;;9.85;96.72
18275;BME280;19470;49.322;7.218;2023-03-21T04:55:59;98800.00;;;9.75;97.57
18275;BME280;19470;49.322;7.218;2023-03-21T04:58:25;98794.22;;;9.78;96.95
18275;BME280;19470;49.322;7.218;2023-03-21T05:00:52;98803.34;;;9.58;99.22
18275;BME280;19470;49.322;7.218;2023-03-21T05:03:20;98795.56;;;9.92;97.19
18275;BME280;19470;49.322;7.218;2023-03-21T05:05:46;98798.09;;;9.98;95.58
18275;BME280;19470;49.322;7.218;2023-03-21T05:08:13;98801.00;;;9.73;98.03
18275;BME280;19470;49.322;7.218;2023-03-21T05:10:40;98791.63;;;9.66;97.80
18275;BME280;19470;49.322;7.218;2023-03-21T05:13:06;98798.41;;;9.62;98.80
18275;BME280;19470;49.322;7.218;2023-03-21T05:15:33;98800.66;;;9.82;98.17
18275;BME280;19470;49.322;7.218;2023-03-21T05:17:59;98796.16;;;9.94;96.86
18275;BME280;19470;49.322;7.218;2023-03-21T05:20:36;98790.44;;;9.73;97.89
18275;BME280;19470;49.322;7.218;2023-03-21T05:23:06;98798.84;;;9.59;99.33
18275;BME280;19470;49.322;7.218;2023-03-21T05:25:35;98788.06;;;10.12;95.58
18275;BME280;19470;49.322;7.218;2023-03-21T05:28:02;98795.53;;;9.63;96.37
18275;BME280;19470;49.322;7.218;2023-03-21T05:30:30;98783.66;;;9.78;95.74
18275;BME280;19470;49.322;7.218;2023-03-21T05:32:56;98788.78;;;9.96;96.27
18275;BME280;19470;49.322;7.218;2023-03-21T05:35:23;98796.41;;;9.81;97.07
18275;BME280;19470;49.322;7.218;2023-03-21T05:37:51;98797.50;;;9.56;99.22
18275;BME280;19470;49.322;7.218;2023-03-21T05:40:18;98793.09;;;9.73;98.99
18275;BME280;19470;49.322;7.218;2023-03-21T05:42:45;98803.44;;;9.63;98.47
18275;BME280;19470;49.322;7.218;2023-03-21T05:45:12;98790.03;;;10.05;95.26
18275;BME280;19470;49.322;7.218;2023-03-21T05:47:39;98794.13;;;10.24;92.51
18275;BME280;19470;49.322;7.218;2023-03-21T05:50:07;98788.22;;;10.34;93.20
18275;BME280;19470;49.322;7.218;2023-03-21T05:52:33;98793.31;;;9.72;98.34
18275;BME280;19470;49.322;7.218;2023-03-21T05:55:01;98795.63;;;10.49;94.00
18275;BME280;19470;49.322;7.218;2023-03-21T05:57:28;98792.69;;;10.34;94.34
18275;BME280;19470;49.322;7.218;2023-03-21T05:59:57;98789.31;;;10.50;93.72
18275;BME280;19470;49.322;7.218;2023-03-21T06:05:45;98794.59;;;10.21;97.89
18275;BME280;19470;49.322;7.218;2023-03-21T06:08:39;98796.56;;;10.43;96.76
18275;BME280;19470;49.322;7.218;2023-03-21T06:11:14;98797.22;;;9.93;99.52
18275;BME280;19470;49.322;7.218;2023-03-21T06:13:44;98791.84;;;9.64;100.00
18275;BME280;19470;49.322;7.218;2023-03-21T06:16:11;98792.09;;;10.43;98.50
18275;BME280;19470;49.322;7.218;2023-03-21T06:18:37;98792.19;;;11.49;91.53
18275;BME280;19470;49.322;7.218;2023-03-21T06:21:04;98786.28;;;11.64;89.71
18275;BME280;19470;49.322;7.218;2023-03-21T06:23:31;98783.44;;;11.49;89.32
18275;BME280;19470;49.322;7.218;2023-03-21T06:25:57;98785.75;;;12.06;87.54
18275;BME280;19470;49.322;7.218;2023-03-21T06:28:25;98789.06;;;12.18;87.19
18275;BME280;19470;49.322;7.218;2023-03-21T06:30:51;98798.91;;;11.57;91.34
18275;BME280;19470;49.322;7.218;2023-03-21T06:33:18;98795.03;;;11.09;94.67
18275;BME280;19470;49.322;7.218;2023-03-21T06:35:49;98799.53;;;11.25;93.46
18275;BME280;19470;49.322;7.218;2023-03-21T06:38:16;98790.47;;;11.60;92.04
18275;BME280;19470;49.322;7.218;2023-03-21T06:40:44;98787.44;;;12.39;87.42
18275;BME280;19470;49.322;7.218;2023-03-21T06:43:10;98786.69;;;11.17;94.48
18275;BME280;19470;49.322;7.218;2023-03-21T06:45:38;98790.47;;;11.60;92.67
18275;BME280;19470;49.322;7.218;2023-03-21T06:48:05;98792.50;;;11.75;92.39
18275;BME280;19470;49.322;7.218;2023-03-21T06:50:31;98788.78;;;11.76;91.97
18275;BME280;19470;49.322;7.218;2023-03-21T06:52:58;98788.56;;;11.77;92.97
18275;BME280;19470;49.322;7.218;2023-03-21T06:55:25;98787.22;;;12.46;88.34
18275;BME280;19470;49.322;7.218;2023-03-21T06:57:53;98790.44;;;12.21;88.42
18275;BME280;19470;49.322;7.218;2023-03-21T07:00:21;98784.31;;;12.20;88.73
18275;BME280;19470;49.322;7.218;2023-03-21T07:02:49;98789.13;;;11.80;91.33
18275;BME280;19470;49.322;7.218;2023-03-21T07:05:16;98790.16;;;12.22;90.47
18275;BME280;19470;49.322;7.218;2023-03-21T07:07:43;98781.81;;;12.63;89.01
18275;BME280;19470;49.322;7.218;2023-03-21T07:10:10;98779.16;;;12.63;87.66
18275;BME280;19470;49.322;7.218;2023-03-21T07:12:37;98778.41;;;12.67;88.61
18275;BME280;19470;49.322;7.218;2023-03-21T07:15:05;98773.28;;;12.93;85.26
18275;BME280;19470;49.322;7.218;2023-03-21T07:17:32;98785.41;;;13.53;82.60
18275;BME280;19470;49.322;7.218;2023-03-21T07:20:00;98783.97;;;13.35;83.17
18275;BME280;19470;49.322;7.218;2023-03-21T07:22:29;98778.25;;;13.16;83.10
18275;BME280;19470;49.322;7.218;2023-03-21T07:24:55;98781.78;;;13.69;81.37
18275;BME280;19470;49.322;7.218;2023-03-21T07:27:22;98779.25;;;14.00;80.05
18275;BME280;19470;49.322;7.218;2023-03-21T07:29:48;98778.66;;;13.35;83.42
18275;BME280;19470;49.322;7.218;2023-03-21T07:32:15;98775.22;;;13.40;83.83
18275;BME280;19470;49.322;7.218;2023-03-21T07:34:41;98780.47;;;13.24;85.22
18275;BME280;19470;49.322;7.218;2023-03-21T07:40:16;98780.47;;;14.75;78.30
18275;BME280;19470;49.322;7.218;2023-03-21T07:42:43;98780.22;;;14.92;78.04
18275;BME280;19470;49.322;7.218;2023-03-21T07:45:10;98783.16;;;14.91;77.28
18275;BME280;19470;49.322;7.218;2023-03-21T07:47:39;98793.97;;;14.23;81.66
18275;BME280;19470;49.322;7.218;2023-03-21T07:50:06;98781.03;;;15.03;78.25
18275;BME280;19470;49.322;7.218;2023-03-21T07:52:33;98789.53;;;15.05;77.57
18275;BME280;19470;49.322;7.218;2023-03-21T07:54:59;98793.00;;;15.31;76.80
18275;BME280;19470;49.322;7.218;2023-03-21T07:57:27;98788.16;;;15.53;76.18
18275;BME280;19470;49.322;7.218;2023-03-21T07:59:54;98789.50;;;15.46;75.66
18275;BME280;19470;49.322;7.218;2023-03-21T08:02:20;98789.78;;;15.39;76.27
18275;BME280;19470;49.322;7.218;2023-03-21T08:04:47;98795.31;;;15.73;74.83
18275;BME280;19470;49.322;7.218;2023-03-21T08:07:14;98791.00;;;15.88;74.64
18275;BME280;19470;49.322;7.218;2023-03-21T08:09:42;98792.84;;;15.92;72.85
18275;BME280;19470;49.322;7.218;2023-03-21T08:12:09;98792.16;;;15.46;75.64
18275;BME280;19470;49.322;7.218;2023-03-21T08:14:37;98796.44;;;15.37;76.91
18275;BME280;19470;49.322;7.218;2023-03-21T08:17:04;98794.00;;;15.55;76.37
18275;BME280;19470;49.322;7.218;2023-03-21T08:19:31;98787.41;;;15.07;77.84
18275;BME280;19470;49.322;7.218;2023-03-21T08:21:57;98793.72;;;15.57;75.76
18275;BME280;19470;49.322;7.218;2023-03-21T08:24:24;98788.75;;;15.09;79.10
18275;BME280;19470;49.322;7.218;2023-03-21T08:26:51;98790.19;;;15.87;75.21
18275;BME280;19470;49.322;7.218;2023-03-21T08:29:17;98782.75;;;15.79;74.23
18275;BME280;19470;49.322;7.218;2023-03-21T08:31:45;98778.38;;;16.53;72.15
18275;BME280;19470;49.322;7.218;2023-03-21T08:34:11;98780.72;;;16.59;71.57
18275;BME280;19470;49.322;7.218;2023-03-21T08:36:38;98784.22;;;16.55;72.14
18275;BME280;19470;49.322;7.218;2023-03-21T08:39:05;98779.38;;;16.62;72.55
18275;BME280;19470;49.322;7.218;2023-03-21T08:41:32;98786.72;;;15.92;73.87
18275;BME280;19470;49.322;7.218;2023-03-21T08:43:59;98787.50;;;15.92;74.12
18275;BME280;19470;49.322;7.218;2023-03-21T08:46:26;98781.84;;;15.99;74.95
18275;BME280;19470;49.322;7.218;2023-03-21T08:48:53;98783.88;;;16.72;71.39
18275;BME280;19470;49.322;7.218;2023-03-21T08:51:20;98773.00;;;16.92;70.15
18275;BME280;19470;49.322;7.218;2023-03-21T08:53:47;98776.38;;;17.08;69.31
18275;BME280;19470;49.322;7.218;2023-03-21T08:56:15;98766.22;;;17.05;69.47
18275;BME280;19470;49.322;7.218;2023-03-21T08:58:41;98771.66;;;16.95;70.53
18275;BME280;19470;49.322;7.218;2023-03-21T09:01:08;98764.28;;;17.10;69.84
18275;BME280;19470;49.322;7.218;2023-03-21T09:03:39;98774.47;;;17.37;68.73
18275;BME280;19470;49.322;7.218;2023-03-21T09:06:08;98776.91;;;17.05;68.96
18275;BME280;19470;49.322;7.218;2023-03-21T09:08:35;98773.72;;;17.32;67.91
18275;BME280;19470;49.322;7.218;2023-03-21T09:11:02;98769.66;;;16.76;71.95
18275;BME280;19470;49.322;7.218;2023-03-21T09:13:28;98768.53;;;17.41;68.09
18275;BME280;19470;49.322;7.218;2023-03-21T09:15:55;98763.91;;;17.75;65.70
18275;BME280;19470;49.322;7.218;2023-03-21T09:18:25;98769.13;;;17.37;66.70
18275;BME280;19470;49.322;7.218;2023-03-21T09:21:08;98765.25;;;17.49;65.07
18275;BME280;19470;49.322;7.218;2023-03-21T09:23:37;98764.44;;;17.72;64.55
18275;BME280;19470;49.322;7.218;2023-03-21T09:26:04;98763.38;;;17.73;63.41
18275;BME280;19470;49.322;7.218;2023-03-21T09:28:30;98762.75;;;17.81;63.41
18275;BME280;19470;49.322;7.218;2023-03-21T09:30:57;98760.00;;;17.38;65.92
18275;BME280;19470;49.322;7.218;2023-03-21T09:33:24;98762.22;;;18.60;61.95
18275;BME280;19470;49.322;7.218;2023-03-21T09:35:53;98757.28;;;19.00;58.62
18275;BME280;19470;49.322;7.218;2023-03-21T09:38:21;98755.75;;;19.26;58.92
18275;BME280;19470;49.322;7.218;2023-03-21T09:41:02;98753.78;;;18.85;58.75
18275;BME280;19470;49.322;7.218;2023-03-21T09:43:37;98755.84;;;20.04;57.20
18275;BME280;19470;49.322;7.218;2023-03-21T09:46:09;98752.13;;;20.27;55.63
18275;BME280;19470;49.322;7.218;2023-03-21T09:48:47;98747.22;;;21.41;50.65
18275;BME280;19470;49.322;7.218;2023-03-21T09:51:17;98743.00;;;21.58;50.76
18275;BME280;19470;49.322;7.218;2023-03-21T09:53:47;98736.53;;;20.74;51.51
18275;BME280;19470;49.322;7.218;2023-03-21T09:56:16;98742.53;;;20.49;52.92
18275;BME280;19470;49.322;7.218;2023-03-21T09:58:46;98737.34;;;21.85;49.30
18275;BME280;19470;49.322;7.218;2023-03-21T10:01:19;98736.28;;;21.15;51.65
18275;BME280;19470;49.322;7.218;2023-03-21T10:03:52;98734.41;;;22.74;49.09
18275;BME280;19470;49.322;7.218;2023-03-21T10:06:21;98737.06;;;21.38;49.92
18275;BME280;19470;49.322;7.218;2023-03-21T10:08:57;98727.66;;;21.27;50.46
18275;BME280;19470;49.322;7.218;2023-03-21T10:11:27;98723.81;;;20.66;51.88
18275;BME280;19470;49.322;7.218;2023-03-21T10:13:59;98723.41;;;21.92;49.21
18275;BME280;19470;49.322;7.218;2023-03-21T10:16:30;98732.88;;;20.48;50.92
18275;BME280;19470;49.322;7.218;2023-03-21T10:18:58;98737.81;;;20.99;49.71
18275;BME280;19470;49.322;7.218;2023-03-21T10:21:27;98728.72;;;20.28;52.14
18275;BME280;19470;49.322;7.218;2023-03-21T10:23:56;98731.31;;;18.81;55.25
18275;BME280;19470;49.322;7.218;2023-03-21T10:28:53;98716.28;;;21.96;49.17
18275;BME280;19470;49.322;7.218;2023-03-21T10:31:23;98717.88;;;22.06;48.65
18275;BME280;19470;49.322;7.218;2023-03-21T10:33:51;98718.09;;;21.21;50.24
18275;BME280;19470;49.322;7.218;2023-03-21T10:36:21;98717.03;;;20.10;52.92
18275;BME280;19470;49.322;7.218;2023-03-21T10:38:52;98722.44;;;19.27;54.70
18275;BME280;19470;49.322;7.218;2023-03-21T10:41:21;98715.09;;;20.91;50.46
18275;BME280;19470;49.322;7.218;2023-03-21T10:44:04;98715.06;;;19.05;55.13
18275;BME280;19470;49.322;7.218;2023-03-21T10:46:31;98711.31;;;19.20;53.94
18275;BME280;19470;49.322;7.218;2023-03-21T10:48:59;98712.94;;;18.88;55.88
18275;BME280;19470;49.322;7.218;2023-03-21T10:51:27;98711.34;;;18.74;56.88
18275;BME280;19470;49.322;7.218;2023-03-21T10:53:57;98716.50;;;19.58;54.86
18275;BME280;19470;49.322;7.218;2023-03-21T10:56:28;98711.91;;;18.71;56.78
18275;BME280;19470;49.322;7.218;2023-03-21T10:58:56;98728.34;;;17.46;61.11
18275;BME280;19470;49.322;7.218;2023-03-21T11:01:27;98716.91;;;17.59;63.34
18275;BME280;19470;49.322;7.218;2023-03-21T11:03:57;98718.53;;;18.22;66.08
18275;BME280;19470;49.322;7.218;2023-03-21T11:06:30;98717.03;;;17.01;72.39
18275;BME280;19470;49.322;7.218;2023-03-21T11:09:02;98725.28;;;16.75;76.04
18275;BME280;19470;49.322;7.218;2023-03-21T11:11:36;98732.88;;;16.58;77.15
18275;BME280;19470;49.322;7.218;2023-03-21T11:14:06;98729.56;;;17.29;91.27
18275;BME280;19470;49.322;7.218;2023-03-21T11:16:38;98730.41;;;16.72;83.42
18275;BME280;19470;49.322;7.218;2023-03-21T11:19:13;98737.41;;;16.18;84.06
18275;BME280;19470;49.322;7.218;2023-03-21T11:21:40;98736.00;;;16.65;86.67
18275;BME280;19470;49.322;7.218;2023-03-21T11:24:12;98739.03;;;16.19;81.30
18275;BME280;19470;49.322;7.218;2023-03-21T11:26:42;98736.53;;;16.72;83.81
18275;BME280;19470;49.322;7.218;2023-03-21T11:29:23;98732.03;;;16.97;77.31
18275;BME280;19470;49.322;7.218;2023-03-21T11:31:51;98718.00;;;18.38;76.96
18275;BME280;19470;49.322;7.218;2023-03-21T11:34:32;98724.41;;;18.05;79.30
18275;BME280;19470;49.322;7.218;2023-03-21T11:37:01;98711.72;;;18.10;76.74
18275;BME280;19470;49.322;7.218;2023-03-21T11:39:34;98713.06;;;17.70;77.18
18275;BME280;19470;49.322;7.218;2023-03-21T11:42:05;98721.38;;;18.11;76.16
18275;BME280;19470;49.322;7.218;2023-03-21T11:44:57;98720.00;;;17.71;76.63
18275;BME280;19470;49.322;7.218;2023-03-21T11:47:25;98716.81;;;17.21;77.97
18275;BME280;19470;49.322;7.218;2023-03-21T11:49:51;98707.25;;;18.57;74.72
18275;BME280;19470;49.322;7.218;2023-03-21T11:52:22;98706.50;;;18.19;74.43
18275;BME280;19470;49.322;7.218;2023-03-21T11:55:09;98700.41;;;17.76;75.71
18275;BME280;19470;49.322;7.218;2023-03-21T11:57:47;98700.44;;;18.65;72.61
18275;BME280;19470;49.322;7.218;2023-03-21T12:00:19;98701.66;;;17.59;75.87
18275;BME280;19470;49.322;7.218;2023-03-21T12:03:15;98696.03;;;16.50;81.82
18275;BME280;19470;49.322;7.218;2023-03-21T12:05:52;98697.19;;;17.98;77.60
18275;BME280;19470;49.322;7.218;2023-03-21T12:08:27;98693.84;;;18.57;76.00
18275;BME280;19470;49.322;7.218;2023-03-21T12:11:02;98679.16;;;18.03;76.89
18275;BME280;19470;49.322;7.218;2023-03-21T12:13:46;98672.56;;;17.96;75.75
18275;BME280;19470;49.322;7.218;2023-03-21T12:16:30;98658.50;;;18.04;77.04
18275;BME280;19470;49.322;7.218;2023-03-21T12:19:15;98664.53;;;18.47;74.47
18275;BME280;19470;49.322;7.218;2023-03-21T12:21:56;98658.94;;;18.44;75.89
18275;BME280;19470;49.322;7.218;2023-03-21T12:24:30;98654.13;;;18.59;74.22
18275;BME280;19470;49.322;7.218;2023-03-21T12:27:03;98650.25;;;19.12;73.33
18275;BME280;19470;49.322;7.218;2023-03-21T12:29:52;98653.03;;;19.07;72.41
18275;BME280;19470;49.322;7.218;2023-03-21T12:32:31;98635.25;;;19.25;69.70
18275;BME280;19470;49.322;7.218;2023-03-21T12:35:19;98646.34;;;18.90;70.88
18275;BME280;19470;49.322;7.218;2023-03-21T12:37:52;98634.25;;;19.62;70.14
18275;BME280;19470;49.322;7.218;2023-03-21T12:40:36;98638.94;;;19.15;71.72
18275;BME280;19470;49.322;7.218;2023-03-21T12:43:21;98642.09;;;19.31;70.75
18275;BME280;19470;49.322;7.218;2023-03-21T12:45:53;98641.88;;;19.55;69.02
18275;BME280;19470;49.322;7.218;2023-03-21T12:48:26;98646.44;;;19.82;68.94
18275;BME280;19470;49.322;7.218;2023-03-21T12:50:54;98646.41;;;18.06;74.23
18275;BME280;19470;49.322;7.218;2023-03-21T12:53:38;98642.84;;;18.11;73.90
18275;BME280;19470;49.322;7.218;2023-03-21T12:56:11;98630.47;;;19.35;68.63
18275;BME280;19470;49.322;7.218;2023-03-21T12:58:44;98620.63;;;19.31;67.12
18275;BME280;19470;49.322;7.218;2023-03-21T13:01:16;98621.19;;;19.69;65.42
18275;BME280;19470;49.322;7.218;2023-03-21T13:03:50;98619.78;;;19.72;65.20
18275;BME280;19470;49.322;7.218;2023-03-21T13:06:24;98611.69;;;19.22;66.22
18275;BME280;19470;49.322;7.218;2023-03-21T13:08:55;98611.75;;;19.44;63.54
18275;BME280;19470;49.322;7.218;2023-03-21T13:11:24;98603.78;;;19.53;63.23
18275;BME280;19470;49.322;7.218;2023-03-21T13:13:55;98598.16;;;18.72;66.43
18275;BME280;19470;49.322;7.218;2023-03-21T13:16:29;98575.44;;;18.36;68.35
18275;BME280;19470;49.322;7.218;2023-03-21T13:19:03;98549.97;;;18.80;67.50
18275;BME280;19470;49.322;7.218;2023-03-21T13:21:40;98574.81;;;18.86;66.65
18275;BME280;19470;49.322;7.218;2023-03-21T13:24:24;98574.81;;;19.00;65.84
18275;BME280;19470;49.322;7.218;2023-03-21T13:26:56;98558.59;;;19.05;64.95
18275;BME280;19470;49.322;7.218;2023-03-21T13:29:27;98544.81;;;18.84;65.55
18275;BME280;19470;49.322;7.218;2023-03-21T13:32:05;98545.50;;;18.89;65.64
18275;BME280;19470;49.322;7.218;2023-03-21T13:34:32;98555.22;;;18.99;64.78
18275;BME280;19470;49.322;7.218;2023-03-21T13:37:00;98548.81;;;19.36;64.64
18275;BME280;19470;49.322;7.218;2023-03-21T13:39:27;98545.59;;;19.62;63.79
18275;BME280;19470;49.322;7.218;2023-03-21T13:42:01;98549.03;;;19.76;63.31
18275;BME280;19470;49.322;7.218;2023-03-21T13:44:31;98557.06;;;19.99;64.71